Home > Products > Valid Products > MTR

000
SAUS43 KDDC 010457
MTRP28
METAR KP28 010456Z AUTO 10007KT 17/06 A2984 RMK AO1 SLP093 T01720056





000
SAUS43 KDDC 010457
MTRP28
METAR KP28 010456Z AUTO 10007KT 17/06 A2984 RMK AO1 SLP093 T01720056





000
SAUS43 KDDC 010357
MTRP28
METAR KP28 010356Z AUTO 10007KT 18/04 A2985 RMK AO1 SLP095 T01780044





000
SAUS43 KDDC 010257
MTRP28
METAR KP28 010256Z AUTO 11006KT 19/03 A2986 RMK AO1 SLP100 T01940033
58001





000
SAUS43 KDDC 010257
MTRP28
METAR KP28 010256Z AUTO 11006KT 19/03 A2986 RMK AO1 SLP100 T01940033
58001





000
SAUS43 KDDC 010157
MTRP28
METAR KP28 010156Z AUTO 11006KT 21/03 A2986 RMK AO1 SLP106 T02110028





000
SAUS43 KDDC 010057
MTRP28
METAR KP28 010056Z AUTO 13008KT 24/02 A2986 RMK AO1 SLP106 T02390017





000
SAUS43 KDDC 010057
MTRP28
METAR KP28 010056Z AUTO 13008KT 24/02 A2986 RMK AO1 SLP106 T02390017





000
SAUS43 KDDC 312357
MTRP28
METAR KP28 312356Z AUTO 14009KT 27/01 A2986 RMK AO1 SLP103 T02670011
10294 20261 56010





000
SAUS43 KDDC 312257
MTRP28
METAR KP28 312256Z AUTO 11010KT 28/M01 A2986 RMK AO1 SLP105
T02831006





000
SAUS43 KDDC 312257
MTRP28
METAR KP28 312256Z AUTO 11010KT 28/M01 A2986 RMK AO1 SLP105
T02831006





000
SAUS43 KDDC 312158
MTRP28
METAR KP28 312156Z AUTO 11010G17KT 29/M01 A2987 RMK AO1 SLP104
T02941006





000
SAUS43 KDDC 312057
MTRP28
METAR KP28 312056Z AUTO 10008KT 29/M01 A2989 RMK AO1 SLP112
T02891011 57023





000
SAUS43 KDDC 311957
MTRP28
METAR KP28 311956Z AUTO 10012G17KT 29/00 A2992 RMK AO1 SLP120
T02890000





000
SAUS43 KDDC 311857
MTRP28
METAR KP28 311856Z AUTO 12010G16KT 27/01 A2994 RMK AO1 SLP129
T02720011





000
SAUS43 KDDC 311857
MTRP28
METAR KP28 311856Z AUTO 12010G16KT 27/01 A2994 RMK AO1 SLP129
T02720011





000
SAUS43 KDDC 311757
MTRP28
METAR KP28 311756Z AUTO 12008G15KT 27/03 A2997 RMK AO1 SLP137
T02670028 10267 20067 58004





000
SAUS43 KDDC 311658
MTRP28
METAR KP28 311656Z AUTO 10008KT 25/04 A2998 RMK AO1 SLP142 T02500039





000
SAUS43 KDDC 311658
MTRP28
METAR KP28 311656Z AUTO 10008KT 25/04 A2998 RMK AO1 SLP142 T02500039





000
SAUS43 KDDC 311557
MTRP28
METAR KP28 311556Z AUTO 06010KT 23/04 A2998 RMK AO1 SLP143 T02330044





000
SAUS43 KDDC 311457
MTRP28
METAR KP28 311456Z AUTO 06010KT 20/05 A2998 RMK AO1 SLP142 T02000050
51007





000
SAUS43 KDDC 311457
MTRP28
METAR KP28 311456Z AUTO 06010KT 20/05 A2998 RMK AO1 SLP142 T02000050
51007





000
SAUS43 KDDC 311357
MTRP28
METAR KP28 311356Z AUTO 34004KT 12/04 A2998 RMK AO1 SLP145 T01220039





000
SAUS43 KDDC 311357
MTRP28
METAR KP28 311356Z AUTO 34004KT 12/04 A2998 RMK AO1 SLP145 T01220039





000
SAUS43 KDDC 311257
MTRP28
METAR KP28 311256Z AUTO 02004KT 07/03 A2998 RMK AO1 SLP146 T00720028





000
SAUS43 KDDC 311257
MTRP28
METAR KP28 311256Z AUTO 02004KT 07/03 A2998 RMK AO1 SLP146 T00720028





000
SAUS43 KDDC 311158
MTRP28
METAR KP28 311156Z AUTO 26004KT 09/03 A2996 RMK AO1 SLP137 T00890033
10144 20056 53008





000
SAUS43 KDDC 311158
MTRP28
METAR KP28 311156Z AUTO 26004KT 09/03 A2996 RMK AO1 SLP137 T00890033
10144 20056 53008





000
SAUS43 KDDC 311057
MTRP28
METAR KP28 311056Z AUTO 35004KT 06/03 A2993 RMK AO1 SLP130 T00610033





000
SAUS43 KDDC 311057
MTRP28
METAR KP28 311056Z AUTO 35004KT 06/03 A2993 RMK AO1 SLP130 T00610033





000
SAUS43 KDDC 310957
MTRP28
METAR KP28 310956Z AUTO 34003KT 10/04 A2993 RMK AO1 SLP128 T01000039





000
SAUS43 KDDC 310957
MTRP28
METAR KP28 310956Z AUTO 34003KT 10/04 A2993 RMK AO1 SLP128 T01000039





000
SAUS43 KDDC 310857
MTRP28
METAR KP28 310856Z AUTO 00000KT 09/04 A2993 RMK AO1 SLP127 T00940044
58015





000
SAUS43 KDDC 310857
MTRP28
METAR KP28 310856Z AUTO 00000KT 09/04 A2993 RMK AO1 SLP127 T00940044
58015





000
SAUS43 KDDC 310757
MTRP28
METAR KP28 310756Z AUTO 01004KT 11/05 A2995 RMK AO1 SLP134 T01110050





000
SAUS43 KDDC 310658
MTRP28
METAR KP28 310656Z AUTO 01004KT 12/05 A2996 RMK AO1 SLP138 T01170050





000
SAUS43 KDDC 310658
MTRP28
METAR KP28 310656Z AUTO 01004KT 12/05 A2996 RMK AO1 SLP138 T01170050





000
SAUS43 KDDC 310558
MTRP28
METAR KP28 310556Z AUTO 35004KT 13/05 A2998 RMK AO1 SLP144 T01280050
10239 20111 402670006 53005





000
SAUS43 KDDC 310558
MTRP28
METAR KP28 310556Z AUTO 35004KT 13/05 A2998 RMK AO1 SLP144 T01280050
10239 20111 402670006 53005





000
SAUS43 KDDC 310458
MTRP28
METAR KP28 310456Z AUTO 20004KT 14/05 A2996 RMK AO1 SLP138 T01440050





000
SAUS43 KDDC 310458
MTRP28
METAR KP28 310456Z AUTO 20004KT 14/05 A2996 RMK AO1 SLP138 T01440050





000
SAUS43 KDDC 310358
MTRP28
METAR KP28 310356Z AUTO 18007KT 16/05 A2996 RMK AO1 SLP140 T01610050





000
SAUS43 KDDC 310258
MTRP28
METAR KP28 310256Z AUTO 17007KT 19/05 A2996 RMK AO1 SLP140 T01890050
53007





000
SAUS43 KDDC 310258
MTRP28
METAR KP28 310256Z AUTO 17007KT 19/05 A2996 RMK AO1 SLP140 T01890050
53007





000
SAUS43 KDDC 310157
MTRP28
METAR KP28 310156Z AUTO 16008KT 20/04 A2995 RMK AO1 SLP138 T02000044





000
SAUS43 KDDC 310057
MTRP28
METAR KP28 310056Z AUTO 16007KT 22/05 A2994 RMK AO1 SLP136 T02170050





000
SAUS43 KDDC 310057
MTRP28
METAR KP28 310056Z AUTO 16007KT 22/05 A2994 RMK AO1 SLP136 T02170050





000
SAUS43 KDDC 302357
MTRP28
METAR KP28 302356Z AUTO 17011G19KT 24/03 A2994 RMK AO1 SLP136
T02390033 10267 20200 56017





000
SAUS43 KDDC 302357
MTRP28
METAR KP28 302356Z AUTO 17011G19KT 24/03 A2994 RMK AO1 SLP136
T02390033 10267 20200 56017





000
SAUS43 KDDC 302257
MTRP28
METAR KP28 302256Z AUTO 17013G25KT 26/03 A2995 RMK AO1 SLP137
T02610028





000
SAUS43 KDDC 302257
MTRP28
METAR KP28 302256Z AUTO 17013G25KT 26/03 A2995 RMK AO1 SLP137
T02610028





000
SAUS43 KDDC 302157
MTRP28
METAR KP28 302156Z AUTO 18016G23KT 26/01 A2996 RMK AO1 SLP141
T02610011





000
SAUS43 KDDC 302057
MTRP28
METAR KP28 302056Z AUTO 20011G24KT 26/02 A2999 RMK AO1 SLP151
T02610017 56047





000
SAUS43 KDDC 302057
MTRP28
METAR KP28 302056Z AUTO 20011G24KT 26/02 A2999 RMK AO1 SLP151
T02610017 56047





000
SAUS43 KDDC 301957
MTRP28
METAR KP28 301956Z AUTO 18014G24KT 23/04 A3004 RMK AO1 SLP167
T02330039





000
SAUS43 KDDC 301857
MTRP28
METAR KP28 301856Z AUTO 18012G20KT 23/03 A3009 RMK AO1 SLP186
T02280033





000
SAUS43 KDDC 301857
MTRP28
METAR KP28 301856Z AUTO 18012G20KT 23/03 A3009 RMK AO1 SLP186
T02280033





000
SAUS43 KDDC 301757
MTRP28
METAR KP28 301756Z AUTO 18014G22KT 20/04 A3014 RMK AO1 SLP203
T02000039 10200 20006 58020





000
SAUS43 KDDC 301757
MTRP28
METAR KP28 301756Z AUTO 18014G22KT 20/04 A3014 RMK AO1 SLP203
T02000039 10200 20006 58020





000
SAUS43 KDDC 301657
MTRP28
METAR KP28 301656Z AUTO 19012G18KT 18/04 A3017 RMK AO1 SLP214
T01780044





000
SAUS43 KDDC 301657
MTRP28
METAR KP28 301656Z AUTO 19012G18KT 18/04 A3017 RMK AO1 SLP214
T01780044





000
SAUS43 KDDC 301557
MTRP28
METAR KP28 301556Z AUTO 18010KT 16/04 A3020 RMK AO1 SLP223 T01560039





000
SAUS43 KDDC 301457
MTRP28
METAR KP28 301456Z AUTO 19010KT 12/03 A3020 RMK AO1 SLP226 T01220033
52002





000
SAUS43 KDDC 301357
MTRP28
METAR KP28 301356Z AUTO 00000KT 07/02 A3019 RMK AO1 SLP225 T00670017





000
SAUS43 KDDC 301357
MTRP28
METAR KP28 301356Z AUTO 00000KT 07/02 A3019 RMK AO1 SLP225 T00670017





000
SAUS43 KDDC 301257
MTRP28
METAR KP28 301256Z AUTO 00000KT 02/M01 A3020 RMK AO1 SLP230
T00221006





000
SAUS43 KDDC 301157
MTRP28
METAR KP28 301156Z AUTO 01004KT 01/M02 A3020 RMK AO1 SLP225
T00061017 10072 20006 55000





000
SAUS43 KDDC 301157
MTRP28
METAR KP28 301156Z AUTO 01004KT 01/M02 A3020 RMK AO1 SLP225
T00061017 10072 20006 55000





000
SAUS43 KDDC 301057
MTRP28
METAR KP28 301056Z AUTO 00000KT 02/M01 A3019 RMK AO1 SLP221
T00221011





000
SAUS43 KDDC 301057
MTRP28
METAR KP28 301056Z AUTO 00000KT 02/M01 A3019 RMK AO1 SLP221
T00221011





000
SAUS43 KDDC 300957
MTRP28
METAR KP28 300956Z AUTO 00000KT 04/M01 A3019 RMK AO1 SLP221
T00391006





000
SAUS43 KDDC 300857
MTRP28
METAR KP28 300856Z AUTO 00000KT 04/M01 A3020 RMK AO1 SLP222
T00441006 50000





000
SAUS43 KDDC 300857
MTRP28
METAR KP28 300856Z AUTO 00000KT 04/M01 A3020 RMK AO1 SLP222
T00441006 50000





000
SAUS43 KDDC 300757
MTRP28
METAR KP28 300756Z AUTO 28003KT 06/M01 A3021 RMK AO1 SLP226
T00611006





000
SAUS43 KDDC 300757
MTRP28
METAR KP28 300756Z AUTO 28003KT 06/M01 A3021 RMK AO1 SLP226
T00611006





000
SAUS43 KDDC 300657
MTRP28
METAR KP28 300656Z AUTO 28003KT 07/M01 A3020 RMK AO1 SLP222
T00721006





000
SAUS43 KDDC 300657
MTRP28
METAR KP28 300656Z AUTO 28003KT 07/M01 A3020 RMK AO1 SLP222
T00721006





000
SAUS43 KDDC 300557
MTRP28
METAR KP28 300556Z AUTO 01004KT 07/M01 A3019 RMK AO1 SLP221
T00671006 10211 20061 402390050 50008





000
SAUS43 KDDC 300557
MTRP28
METAR KP28 300556Z AUTO 01004KT 07/M01 A3019 RMK AO1 SLP221
T00671006 10211 20061 402390050 50008





000
SAUS43 KDDC 300457
MTRP28
METAR KP28 300456Z AUTO 00000KT 10/M01 A3020 RMK AO1 SLP222
T01001006





000
SAUS43 KDDC 300457
MTRP28
METAR KP28 300456Z AUTO 00000KT 10/M01 A3020 RMK AO1 SLP222
T01001006





000
SAUS43 KDDC 300357
MTRP28
METAR KP28 300356Z AUTO 35003KT 09/00 A3019 RMK AO1 SLP221 T00940000





000
SAUS43 KDDC 300357
MTRP28
METAR KP28 300356Z AUTO 35003KT 09/00 A3019 RMK AO1 SLP221 T00940000





000
SAUS43 KDDC 300257
MTRP28
METAR KP28 300256Z AUTO 01005KT 12/M01 A3017 RMK AO1 SLP214
T01171006 51024





000
SAUS43 KDDC 300157
MTRP28
METAR KP28 300156Z AUTO 35004KT 14/M01 A3015 RMK AO1 SLP208
T01391006





000
SAUS43 KDDC 300157
MTRP28
METAR KP28 300156Z AUTO 35004KT 14/M01 A3015 RMK AO1 SLP208
T01391006





000
SAUS43 KDDC 300057
MTRP28
METAR KP28 300056Z AUTO 03007KT 17/M01 A3012 RMK AO1 SLP201
T01721011





000
SAUS43 KDDC 300057
MTRP28
METAR KP28 300056Z AUTO 03007KT 17/M01 A3012 RMK AO1 SLP201
T01721011





000
SAUS43 KDDC 292357
MTRP28
METAR KP28 292356Z AUTO 02012KT 21/M02 A3010 RMK AO1 SLP188
T02111022 10239 20211 53005





000
SAUS43 KDDC 292357
MTRP28
METAR KP28 292356Z AUTO 02012KT 21/M02 A3010 RMK AO1 SLP188
T02111022 10239 20211 53005





000
SAUS43 KDDC 292257
MTRP28
METAR KP28 292256Z AUTO 01017KT 22/M03 A3008 RMK AO1 PK WND
35027/2205 SLP182 T02221028





000
SAUS43 KDDC 292257
MTRP28
METAR KP28 292256Z AUTO 01017KT 22/M03 A3008 RMK AO1 PK WND
35027/2205 SLP182 T02221028





000
SAUS43 KDDC 292157
MTRP28
METAR KP28 292156Z AUTO 34017G26KT 23/00 A3007 RMK AO1 PK WND
36028/2133 SLP177 T02280000





000
SAUS43 KDDC 292157
MTRP28
METAR KP28 292156Z AUTO 34017G26KT 23/00 A3007 RMK AO1 PK WND
36028/2133 SLP177 T02280000





000
SAUS43 KDDC 292057
MTRP28
METAR KP28 292056Z AUTO 01021G28KT 23/00 A3008 RMK AO1 PK WND
36030/2031 SLP180 T02280000 51006





000
SAUS43 KDDC 292057
MTRP28
METAR KP28 292056Z AUTO 01021G28KT 23/00 A3008 RMK AO1 PK WND
36030/2031 SLP180 T02280000 51006





000
SAUS43 KDDC 291957
MTRP28
METAR KP28 291956Z AUTO 01014G25KT 23/M02 A3007 RMK AO1 PK WND
35031/1912 SLP176 T02281022





000
SAUS43 KDDC 291957
MTRP28
METAR KP28 291956Z AUTO 01014G25KT 23/M02 A3007 RMK AO1 PK WND
35031/1912 SLP176 T02281022





000
SAUS43 KDDC 291857
MTRP28
METAR KP28 291856Z AUTO 36014G25KT 21/01 A3008 RMK AO1 PK WND
01029/1823 SLP180 T02110011





000
SAUS43 KDDC 291857
MTRP28
METAR KP28 291856Z AUTO 36014G25KT 21/01 A3008 RMK AO1 PK WND
01029/1823 SLP180 T02110011





000
SAUS43 KDDC 291757
MTRP28
METAR KP28 291756Z AUTO 35020G29KT 23/M01 A3006 RMK AO1 PK WND
01040/1705 SLP173 T02281011 10239 20050 53028





000
SAUS43 KDDC 291757
MTRP28
METAR KP28 291756Z AUTO 35020G29KT 23/M01 A3006 RMK AO1 PK WND
01040/1705 SLP173 T02281011 10239 20050 53028





000
SAUS43 KDDC 291657
MTRP28
METAR KP28 291656Z AUTO 36026G40KT 22/00 A3003 RMK AO1 PK WND
01040/1650 SLP161 T02220000





000
SAUS43 KDDC 291657
MTRP28
METAR KP28 291656Z AUTO 36026G40KT 22/00 A3003 RMK AO1 PK WND
01040/1650 SLP161 T02220000





000
SAUS43 KDDC 291557
MTRP28
METAR KP28 291556Z AUTO 01023G32KT 19/03 A3000 RMK AO1 PK WND
01034/1537 SLP152 T01940033





000
SAUS43 KDDC 291557
MTRP28
METAR KP28 291556Z AUTO 01023G32KT 19/03 A3000 RMK AO1 PK WND
01034/1537 SLP152 T01940033





000
SAUS43 KDDC 291457
MTRP28
METAR KP28 291456Z AUTO 31003KT 14/08 A2998 RMK AO1 SLP146 T01390083
51028





000
SAUS43 KDDC 291357
MTRP28
METAR KP28 291356Z AUTO 00000KT 10/07 A2995 RMK AO1 SLP139 T01000072





000
SAUS43 KDDC 291357
MTRP28
METAR KP28 291356Z AUTO 00000KT 10/07 A2995 RMK AO1 SLP139 T01000072





000
SAUS43 KDDC 291258
MTRP28
METAR KP28 291256Z AUTO 02005KT 06/04 A2996 RMK AO1 SLP141 T00560044





000
SAUS43 KDDC 291258
MTRP28
METAR KP28 291256Z AUTO 02005KT 06/04 A2996 RMK AO1 SLP141 T00560044





000
SAUS43 KDDC 291158
MTRP28
METAR KP28 291156Z AUTO 11003KT 06/05 A2989 RMK AO1 SLP116 T00610050
10117 20061 53004





000
SAUS43 KDDC 291158
MTRP28
METAR KP28 291156Z AUTO 11003KT 06/05 A2989 RMK AO1 SLP116 T00610050
10117 20061 53004





000
SAUS43 KDDC 291058
MTRP28
METAR KP28 291056Z AUTO 00000KT 08/06 A2988 RMK AO1 SLP112 T00830056





000
SAUS43 KDDC 291058
MTRP28
METAR KP28 291056Z AUTO 00000KT 08/06 A2988 RMK AO1 SLP112 T00830056





000
SAUS43 KDDC 290958
MTRP28
METAR KP28 290956Z AUTO 14007KT 09/06 A2986 RMK AO1 SLP105 T00890056





000
SAUS43 KDDC 290857
MTRP28
METAR KP28 290856Z AUTO 14007KT 09/06 A2988 RMK AO1 SLP110 T00940056
58023





000
SAUS43 KDDC 290757
MTRP28
METAR KP28 290756Z AUTO 15006KT 11/06 A2991 RMK AO1 SLP120 T01060056





000
SAUS43 KDDC 290757
MTRP28
METAR KP28 290756Z AUTO 15006KT 11/06 A2991 RMK AO1 SLP120 T01060056





000
SAUS43 KDDC 290657
MTRP28
METAR KP28 290656Z AUTO 13008KT 11/05 A2993 RMK AO1 SLP127 T01110050





000
SAUS43 KDDC 290657
MTRP28
METAR KP28 290656Z AUTO 13008KT 11/05 A2993 RMK AO1 SLP127 T01110050





000
SAUS43 KDDC 290557
MTRP28
METAR KP28 290556Z AUTO 14007KT 12/05 A2995 RMK AO1 SLP134 T01170050
10228 20117 402500022 58011





000
SAUS43 KDDC 290557
MTRP28
METAR KP28 290556Z AUTO 14007KT 12/05 A2995 RMK AO1 SLP134 T01170050
10228 20117 402500022 58011





    US Dept of Commerce
    National Oceanic and Atmospheric Administration
    National Weather Service
    1325 East West Highway
    Silver Spring, MD 20910
    Page Author: NWS Internet Services Team
Disclaimer
Information Quality
Credits
Glossary
Privacy Policy
Freedom of Information Act (FOIA)
About Us
Career Opportunities